Time;durP1;ratioP1;P1;durP2;ratioP2;P2;SDS_P1;SDS_P2;PMS_P1;PMS_P2;Temp;Humidity;BMP_temperature;BMP_pressure;BME280_temperature;BME280_humidity;BME280_pressure;Samples;Min_cycle;Max_cycle;Signal;HPM_P1;HPM_P2
2023/04/13 00:01:09;;;;;;;0.80;0.40;;;10.30;99.90;;;;;;5104525;28;20671;-57
2023/04/13 00:03:37;;;;;;;0.93;0.50;;;10.20;99.90;;;;;;5104356;28;20204;-57
2023/04/13 00:06:05;;;;;;;0.20;0.20;;;10.20;99.90;;;;;;5105522;28;20305;-58
2023/04/13 00:08:34;;;;;;;2.53;0.40;;;10.10;99.90;;;;;;5105729;28;20204;-58
2023/04/13 00:11:01;;;;;;;0.97;0.47;;;10.10;99.90;;;;;;5104859;28;20327;-57
2023/04/13 00:13:28;;;;;;;0.50;0.30;;;10.00;99.90;;;;;;5104112;28;20210;-58
2023/04/13 00:15:58;;;;;;;0.47;0.47;;;10.00;99.90;;;;;;5104036;28;20230;-58
2023/04/13 00:18:25;;;;;;;1.47;0.60;;;10.00;99.90;;;;;;5103337;28;20212;-58
2023/04/13 00:20:52;;;;;;;0.60;0.50;;;9.90;99.90;;;;;;5103076;28;20220;-58
2023/04/13 00:23:18;;;;;;;0.63;0.53;;;9.80;99.90;;;;;;5103469;28;20230;-58
2023/04/13 00:25:45;;;;;;;1.13;0.50;;;9.70;99.90;;;;;;5103302;28;20708;-57
2023/04/13 00:28:15;;;;;;;1.07;0.50;;;9.50;99.90;;;;;;5103124;28;20234;-58
2023/04/13 00:30:42;;;;;;;0.80;0.40;;;9.50;99.90;;;;;;5103842;28;20273;-59
2023/04/13 00:33:10;;;;;;;0.40;0.37;;;9.50;99.90;;;;;;5103531;28;20212;-58
2023/04/13 00:35:38;;;;;;;1.33;0.40;;;9.50;99.90;;;;;;5103328;28;20713;-58
2023/04/13 00:38:06;;;;;;;1.13;0.50;;;9.50;99.90;;;;;;5102904;28;20288;-58
2023/04/13 00:40:36;;;;;;;0.73;0.40;;;9.40;99.90;;;;;;5102433;28;20226;-57
2023/04/13 00:43:04;;;;;;;0.20;0.20;;;9.40;99.90;;;;;;5103285;28;20212;-58
2023/04/13 00:45:37;;;;;;;1.47;0.37;;;9.50;99.90;;;;;;5103391;28;20208;-57
2023/04/13 00:48:05;;;;;;;0.80;0.50;;;9.40;99.90;;;;;;5103813;28;20663;-57
2023/04/13 00:50:34;;;;;;;0.43;0.30;;;9.50;99.90;;;;;;5102531;28;20224;-58
2023/04/13 00:53:01;;;;;;;1.27;0.60;;;9.60;99.90;;;;;;5101888;28;20298;-56
2023/04/13 00:55:28;;;;;;;0.53;0.30;;;9.60;99.90;;;;;;5099538;28;20220;-56
2023/04/13 00:57:56;;;;;;;1.17;0.40;;;9.60;99.90;;;;;;5100952;28;20212;-57
2023/04/13 01:00:25;;;;;;;0.80;0.47;;;9.70;99.90;;;;;;5100557;28;20687;-57
2023/04/13 01:02:53;;;;;;;1.17;0.43;;;9.60;99.90;;;;;;5099823;28;20204;-57
2023/04/13 01:05:20;;;;;;;1.13;0.40;;;9.60;99.90;;;;;;5098912;28;20555;-57
2023/04/13 01:07:59;;;;;;;0.67;0.47;;;9.60;99.90;;;;;;5099262;28;20619;-58
2023/04/13 01:10:33;;;;;;;0.30;0.20;;;9.50;99.90;;;;;;5099058;28;20234;-57
2023/04/13 01:13:09;;;;;;;0.30;0.30;;;9.50;99.90;;;;;;5098791;28;20234;-57
2023/04/13 01:15:41;;;;;;;0.80;0.30;;;9.40;99.90;;;;;;5099884;28;20208;-57
2023/04/13 01:18:12;;;;;;;0.80;0.30;;;9.40;99.90;;;;;;5100223;28;20204;-57
2023/04/13 01:20:43;;;;;;;0.30;0.30;;;9.40;99.90;;;;;;5099541;28;20228;-57
2023/04/13 01:23:25;;;;;;;0.50;0.30;;;9.50;99.90;;;;;;5100223;28;20232;-57
2023/04/13 01:25:56;;;;;;;0.50;0.50;;;9.40;99.90;;;;;;5100000;28;20239;-58
2023/04/13 01:28:26;;;;;;;1.17;0.30;;;9.30;99.90;;;;;;5099852;28;20204;-58
2023/04/13 01:30:54;;;;;;;0.80;0.40;;;9.30;99.90;;;;;;5098987;28;20235;-57
2023/04/13 01:33:24;;;;;;;0.37;0.37;;;9.30;99.90;;;;;;5099728;28;20243;-57
2023/04/13 01:35:51;;;;;;;1.47;0.40;;;9.30;99.90;;;;;;5099274;28;20254;-57
2023/04/13 01:38:24;;;;;;;0.93;0.37;;;9.40;99.90;;;;;;5098245;28;20232;-57
2023/04/13 01:40:51;;;;;;;1.27;0.47;;;9.40;99.90;;;;;;5097713;28;20323;-57
2023/04/13 01:43:19;;;;;;;0.77;0.40;;;9.40;99.90;;;;;;5097113;28;20208;-59
2023/04/13 01:45:53;;;;;;;0.47;0.30;;;9.20;99.90;;;;;;5098270;28;20281;-57
2023/04/13 01:48:27;;;;;;;1.17;0.50;;;9.10;99.90;;;;;;5097343;28;20199;-57
2023/04/13 01:50:58;;;;;;;0.33;0.30;;;9.00;99.90;;;;;;5097597;28;20228;-57
2023/04/13 01:53:28;;;;;;;3.40;0.60;;;9.00;99.90;;;;;;5097002;28;20208;-57
2023/04/13 01:55:56;;;;;;;2.53;0.33;;;8.90;99.90;;;;;;5098112;28;20208;-58
2023/04/13 01:58:26;;;;;;;1.57;0.50;;;9.00;99.90;;;;;;5098006;28;20211;-57
2023/04/13 02:00:55;;;;;;;0.30;0.30;;;8.90;99.90;;;;;;5096968;28;20224;-57
2023/04/13 02:03:22;;;;;;;1.67;0.60;;;8.90;99.90;;;;;;5096884;28;20208;-57
2023/04/13 02:05:49;;;;;;;1.17;0.50;;;8.90;99.90;;;;;;5097319;28;20204;-58
2023/04/13 02:08:19;;;;;;;1.73;0.40;;;8.90;99.90;;;;;;5097088;28;20214;-57
2023/04/13 02:10:47;;;;;;;1.60;0.47;;;8.80;99.90;;;;;;5096933;28;20692;-58
2023/04/13 02:13:14;;;;;;;0.57;0.33;;;8.70;99.90;;;;;;5096943;28;20204;-57
2023/04/13 02:15:42;;;;;;;1.20;0.50;;;8.70;99.90;;;;;;5096397;28;20210;-57
2023/04/13 02:18:10;;;;;;;1.87;0.40;;;8.60;99.90;;;;;;5096817;28;20216;-59
2023/04/13 02:20:42;;;;;;;1.07;0.40;;;8.60;99.90;;;;;;5097160;28;20228;-56
2023/04/13 02:23:10;;;;;;;0.60;0.30;;;8.60;99.90;;;;;;5096568;28;20206;-57
2023/04/13 02:25:37;;;;;;;0.20;0.20;;;8.70;99.90;;;;;;5096897;28;20664;-57
2023/04/13 02:28:05;;;;;;;2.40;0.50;;;8.80;99.90;;;;;;5096952;28;20212;-57
2023/04/13 02:30:32;;;;;;;1.30;0.50;;;8.90;99.90;;;;;;5096872;28;20699;-57
2023/04/13 02:33:00;;;;;;;0.40;0.30;;;9.00;99.90;;;;;;5096763;28;20699;-57
2023/04/13 02:35:29;;;;;;;1.03;0.67;;;9.00;99.90;;;;;;5096584;28;20235;-58
2023/04/13 02:37:56;;;;;;;3.23;0.50;;;9.00;99.90;;;;;;5096555;28;20199;-57
2023/04/13 02:40:24;;;;;;;1.80;0.50;;;8.90;99.90;;;;;;5096203;28;20707;-57
2023/04/13 02:42:51;;;;;;;0.50;0.50;;;8.80;99.90;;;;;;5096305;28;20235;-57
2023/04/13 02:45:18;;;;;;;3.47;0.40;;;8.90;99.90;;;;;;5096486;28;20218;-57
2023/04/13 02:47:46;;;;;;;0.80;0.50;;;8.90;99.90;;;;;;5096392;28;20228;-57
2023/04/13 02:50:13;;;;;;;0.80;0.57;;;9.00;99.90;;;;;;5096560;28;20228;-57
2023/04/13 02:52:42;;;;;;;1.13;0.43;;;9.10;99.90;;;;;;5096182;28;20246;-57
2023/04/13 02:55:10;;;;;;;2.83;0.70;;;9.10;99.90;;;;;;5095640;28;20204;-58
2023/04/13 02:57:37;;;;;;;0.97;0.47;;;9.20;99.90;;;;;;5095583;28;20805;-58
2023/04/13 03:00:09;;;;;;;2.83;0.77;;;9.20;99.90;;;;;;5095922;28;20691;-57
2023/04/13 03:02:36;;;;;;;3.40;0.50;;;9.30;99.90;;;;;;5096020;28;20253;-57
2023/04/13 03:05:04;;;;;;;1.40;0.40;;;9.30;99.90;;;;;;5095306;28;20664;-58
2023/04/13 03:07:31;;;;;;;1.40;0.73;;;9.30;99.90;;;;;;5095909;28;20204;-58
2023/04/13 03:10:02;;;;;;;1.53;0.60;;;9.20;99.90;;;;;;5095962;28;20235;-57
2023/04/13 03:12:30;;;;;;;0.80;0.40;;;9.10;99.90;;;;;;5095559;28;20592;-57
2023/04/13 03:15:00;;;;;;;1.40;0.60;;;8.90;99.90;;;;;;5095426;28;20208;-58
2023/04/13 03:17:28;;;;;;;1.27;0.60;;;8.80;99.90;;;;;;5095044;28;20214;-57
2023/04/13 03:19:56;;;;;;;1.30;0.60;;;8.70;99.90;;;;;;5095652;28;20228;-57
2023/04/13 03:22:24;;;;;;;1.17;0.60;;;8.50;99.90;;;;;;5095508;28;20200;-57
2023/04/13 03:24:52;;;;;;;1.73;0.30;;;8.40;99.90;;;;;;5095136;28;20580;-58
2023/04/13 03:27:21;;;;;;;2.80;0.60;;;8.30;99.90;;;;;;5094663;28;20212;-57
2023/04/13 03:29:49;;;;;;;3.97;0.73;;;8.20;99.90;;;;;;5095499;28;20236;-57
2023/04/13 03:32:16;;;;;;;1.80;0.60;;;8.20;99.90;;;;;;5095509;28;20750;-57
2023/04/13 03:34:43;;;;;;;2.20;0.73;;;8.10;99.90;;;;;;5095118;28;20196;-57
2023/04/13 03:37:10;;;;;;;1.60;0.60;;;8.10;99.90;;;;;;5095363;28;20204;-56
2023/04/13 03:39:37;;;;;;;1.73;0.63;;;8.10;99.90;;;;;;5094738;28;20297;-57
2023/04/13 03:42:05;;;;;;;1.33;0.50;;;8.20;99.90;;;;;;5094816;28;20204;-57
2023/04/13 03:44:33;;;;;;;2.83;0.57;;;8.20;99.90;;;;;;5094433;28;20234;-57
2023/04/13 03:47:01;;;;;;;1.70;0.70;;;8.10;99.90;;;;;;5094992;28;20219;-57
2023/04/13 03:49:29;;;;;;;1.97;0.80;;;8.10;99.90;;;;;;5095030;28;20319;-57
2023/04/13 03:51:56;;;;;;;3.30;0.87;;;8.10;99.90;;;;;;5094533;28;20259;-58
2023/04/13 03:54:23;;;;;;;0.80;0.60;;;8.10;99.90;;;;;;5094607;28;20291;-57
2023/04/13 03:56:50;;;;;;;1.03;0.50;;;8.00;99.90;;;;;;5094831;28;20577;-57
2023/04/13 03:59:17;;;;;;;2.27;0.60;;;8.00;99.90;;;;;;5094518;28;20591;-57
2023/04/13 04:01:45;;;;;;;1.20;0.47;;;8.10;99.90;;;;;;5094589;28;20231;-56
2023/04/13 04:04:12;;;;;;;2.07;0.60;;;8.30;99.90;;;;;;5094633;28;20196;-56
2023/04/13 04:06:39;;;;;;;1.23;0.80;;;8.40;99.90;;;;;;5094891;28;20200;-56
2023/04/13 04:09:06;;;;;;;2.23;0.60;;;8.50;99.90;;;;;;5094311;28;20200;-56
2023/04/13 04:11:33;;;;;;;2.10;0.90;;;8.70;99.90;;;;;;5094471;28;20573;-56
2023/04/13 04:14:00;;;;;;;1.80;0.70;;;8.90;99.90;;;;;;5094868;28;20264;-57
2023/04/13 04:16:27;;;;;;;3.37;0.80;;;8.90;99.90;;;;;;5094863;28;20588;-57
2023/04/13 04:18:56;;;;;;;0.87;0.57;;;9.10;99.90;;;;;;5095030;28;20204;-57
2023/04/13 04:21:22;;;;;;;0.93;0.53;;;9.20;99.90;;;;;;5094496;28;20252;-57
2023/04/13 04:23:51;;;;;;;2.83;0.80;;;9.40;99.90;;;;;;5095223;28;20242;-56
2023/04/13 04:26:24;;;;;;;1.20;0.60;;;9.40;99.90;;;;;;5095233;28;20208;-56
2023/04/13 04:28:51;;;;;;;1.30;0.50;;;9.60;99.90;;;;;;5095908;28;20235;-57
2023/04/13 04:31:18;;;;;;;1.23;0.70;;;9.70;99.90;;;;;;5098403;28;20618;-57
2023/04/13 04:33:45;;;;;;;1.63;0.90;;;9.70;99.90;;;;;;5098531;28;20203;-57
2023/04/13 04:36:15;;;;;;;5.27;1.87;;;9.70;99.90;;;;;;5098849;28;20207;-57
2023/04/13 04:38:42;;;;;;;2.53;1.30;;;9.70;99.90;;;;;;5099082;28;20216;-57
2023/04/13 04:41:12;;;;;;;2.27;1.03;;;9.70;99.90;;;;;;5098976;28;20220;-57
2023/04/13 04:43:39;;;;;;;3.57;1.10;;;9.60;99.90;;;;;;5098937;28;20253;-57
2023/04/13 04:46:07;;;;;;;3.53;1.30;;;9.60;99.90;;;;;;5098485;28;20200;-57
2023/04/13 04:48:36;;;;;;;4.13;1.43;;;9.60;99.90;;;;;;5098435;28;20557;-56
2023/04/13 04:51:03;;;;;;;4.33;1.40;;;9.60;99.90;;;;;;5098725;28;20695;-56
2023/04/13 04:53:32;;;;;;;2.27;0.77;;;9.60;99.90;;;;;;5099447;28;20227;-57
2023/04/13 04:55:59;;;;;;;2.27;1.23;;;9.70;99.90;;;;;;5099343;28;20679;-57
2023/04/13 04:58:26;;;;;;;1.40;1.00;;;9.70;99.90;;;;;;5098251;28;20257;-57
2023/04/13 05:00:55;;;;;;;3.97;1.30;;;9.70;99.90;;;;;;5098428;28;20228;-57
2023/04/13 05:03:22;;;;;;;1.73;0.83;;;9.70;99.90;;;;;;5098735;28;20451;-57
2023/04/13 05:05:49;;;;;;;3.23;1.30;;;9.80;99.90;;;;;;5099433;28;20596;-57
2023/04/13 05:08:16;;;;;;;5.00;1.17;;;9.80;99.90;;;;;;5098811;28;20235;-58
2023/04/13 05:10:45;;;;;;;2.60;1.00;;;9.90;99.90;;;;;;5099074;28;20234;-58
2023/04/13 05:13:12;;;;;;;3.37;1.70;;;10.00;99.90;;;;;;5098715;28;20622;-58
2023/04/13 05:15:39;;;;;;;1.73;0.90;;;10.00;99.90;;;;;;5097784;28;20687;-57
2023/04/13 05:18:06;;;;;;;2.20;0.90;;;10.10;99.90;;;;;;5098003;28;20200;-58
2023/04/13 05:20:34;;;;;;;4.43;1.40;;;10.20;99.90;;;;;;5098418;28;20312;-57
2023/04/13 05:23:01;;;;;;;2.17;0.90;;;10.30;99.90;;;;;;5099059;28;20214;-58
2023/04/13 05:25:29;;;;;;;3.60;1.43;;;10.30;99.90;;;;;;5098590;28;20214;-58
2023/04/13 05:27:57;;;;;;;4.53;2.30;;;10.40;99.90;;;;;;5099238;28;20274;-57
2023/04/13 05:30:24;;;;;;;3.20;1.30;;;10.40;99.90;;;;;;5098481;28;20251;-56
2023/04/13 05:32:51;;;;;;;4.53;1.67;;;10.40;99.90;;;;;;5097786;28;20228;-56
2023/04/13 05:35:18;;;;;;;4.00;1.90;;;10.50;99.90;;;;;;5098148;28;20215;-57
2023/04/13 05:37:45;;;;;;;3.00;1.10;;;10.40;99.90;;;;;;5097894;28;20214;-56
2023/04/13 05:40:13;;;;;;;5.00;1.80;;;10.40;99.90;;;;;;5097355;28;20228;-56
2023/04/13 05:42:42;;;;;;;4.00;2.10;;;10.50;99.90;;;;;;5097747;28;20205;-57
2023/04/13 05:45:11;;;;;;;2.30;1.00;;;10.50;99.90;;;;;;5097928;28;20243;-57
2023/04/13 05:47:39;;;;;;;3.63;1.50;;;10.60;99.90;;;;;;5097442;28;20240;-57
2023/04/13 05:50:08;;;;;;;3.60;1.40;;;10.50;99.90;;;;;;5097273;28;20605;-57
2023/04/13 05:52:35;;;;;;;3.73;0.97;;;10.60;99.90;;;;;;5097098;28;20227;-58
2023/04/13 05:55:02;;;;;;;2.67;1.27;;;10.60;99.90;;;;;;5097482;28;20211;-57
2023/04/13 05:57:30;;;;;;;3.67;1.30;;;10.60;99.90;;;;;;5096614;28;20304;-58
2023/04/13 05:59:56;;;;;;;10.07;3.70;;;10.60;99.90;;;;;;5097012;28;20234;-58
2023/04/13 06:02:25;;;;;;;3.90;1.47;;;10.70;99.90;;;;;;5096781;28;20291;-57
2023/04/13 06:04:53;;;;;;;8.93;2.40;;;10.70;99.90;;;;;;5096282;28;20267;-57
2023/04/13 06:07:21;;;;;;;6.10;1.70;;;10.80;99.90;;;;;;5096585;28;20212;-57
2023/04/13 06:09:48;;;;;;;4.60;1.27;;;10.90;99.90;;;;;;5096642;28;20278;-58
2023/04/13 06:12:17;;;;;;;2.77;1.23;;;10.90;99.90;;;;;;5097865;28;20228;-57
2023/04/13 06:14:44;;;;;;;3.13;1.50;;;10.80;99.90;;;;;;5096870;28;20262;-57
2023/04/13 06:17:10;;;;;;;2.77;1.10;;;10.90;99.90;;;;;;5096636;28;20283;-57
2023/04/13 06:19:39;;;;;;;4.77;1.50;;;10.90;99.90;;;;;;5097128;28;20293;-58
2023/04/13 06:22:06;;;;;;;4.63;1.43;;;11.00;99.90;;;;;;5098104;28;20601;-58
2023/04/13 06:24:33;;;;;;;3.07;1.30;;;11.00;99.90;;;;;;5097356;28;20215;-57
2023/04/13 06:27:00;;;;;;;4.80;1.40;;;11.00;99.90;;;;;;5097712;28;20264;-58
2023/04/13 06:29:27;;;;;;;4.80;1.40;;;11.10;99.90;;;;;;5097082;28;20363;-58
2023/04/13 06:31:54;;;;;;;1.77;0.87;;;11.20;99.90;;;;;;5097782;28;20291;-57
2023/04/13 06:34:21;;;;;;;2.63;1.00;;;11.30;99.90;;;;;;5097547;28;20663;-57
2023/04/13 06:36:49;;;;;;;3.30;1.03;;;11.30;99.90;;;;;;5096533;28;20243;-58
2023/04/13 06:39:16;;;;;;;4.63;1.33;;;11.40;99.90;;;;;;5096140;28;20208;-58
2023/04/13 06:41:43;;;;;;;5.50;1.83;;;11.40;99.90;;;;;;5096587;28;20644;-57
2023/04/13 06:44:11;;;;;;;5.40;1.90;;;11.50;99.90;;;;;;5097441;28;20219;-57
2023/04/13 06:46:37;;;;;;;4.30;2.00;;;11.70;99.90;;;;;;5096396;28;20208;-58
2023/04/13 06:49:04;;;;;;;3.50;1.27;;;11.90;99.90;;;;;;5096915;28;20211;-58
2023/04/13 06:51:31;;;;;;;1.87;1.00;;;12.00;99.90;;;;;;5095787;28;20204;-58
2023/04/13 06:54:00;;;;;;;4.47;1.37;;;12.00;99.90;;;;;;5096251;28;20259;-58
2023/04/13 06:56:27;;;;;;;7.23;1.97;;;11.90;99.90;;;;;;5096123;28;20204;-58
2023/04/13 06:58:57;;;;;;;3.20;1.50;;;11.80;99.90;;;;;;5096942;28;20219;-58
2023/04/13 07:01:24;;;;;;;3.77;1.30;;;11.70;99.90;;;;;;5096394;28;20232;-58
2023/04/13 07:03:51;;;;;;;9.37;2.23;;;11.80;99.90;;;;;;5096700;28;20207;-58
2023/04/13 07:06:18;;;;;;;6.00;3.20;;;12.30;99.90;;;;;;5096621;28;20199;-58
2023/04/13 07:08:45;;;;;;;5.90;1.63;;;13.00;99.90;;;;;;5096560;28;20267;-58
2023/04/13 07:11:14;;;;;;;4.73;1.43;;;13.70;99.90;;;;;;5096586;28;20225;-58
2023/04/13 07:13:41;;;;;;;5.40;1.70;;;13.90;99.90;;;;;;5097310;28;20224;-64
2023/04/13 07:16:10;;;;;;;2.43;1.20;;;14.00;99.90;;;;;;5097525;28;20236;-62
2023/04/13 07:18:37;;;;;;;2.20;1.20;;;13.80;99.90;;;;;;5096910;28;20211;-63
2023/04/13 07:21:06;;;;;;;5.93;1.30;;;13.50;99.90;;;;;;5097181;28;20273;-65
2023/04/13 07:23:33;;;;;;;3.27;1.40;;;13.20;99.90;;;;;;5097274;28;20204;-61
2023/04/13 07:26:00;;;;;;;4.50;1.40;;;13.00;99.90;;;;;;5097772;28;20216;-60
2023/04/13 07:28:28;;;;;;;4.50;1.50;;;12.70;99.90;;;;;;5097236;28;20311;-59
2023/04/13 07:30:55;;;;;;;3.50;1.47;;;12.70;99.90;;;;;;5096671;28;20271;-57
2023/04/13 07:33:22;;;;;;;4.10;1.43;;;12.60;99.90;;;;;;5095598;28;20255;-57
2023/04/13 07:35:53;;;;;;;4.53;1.20;;;12.60;99.90;;;;;;5094509;28;20207;-60
2023/04/13 07:38:20;;;;;;;5.37;1.60;;;12.60;99.90;;;;;;5096051;28;20208;-62
2023/04/13 07:40:47;;;;;;;2.57;1.20;;;12.70;99.90;;;;;;5093763;28;20291;-58
2023/04/13 07:43:14;;;;;;;3.60;1.63;;;12.70;99.90;;;;;;5093036;28;20275;-58
2023/04/13 07:45:43;;;;;;;5.30;1.60;;;12.70;99.90;;;;;;5092501;28;20249;-57
2023/04/13 07:48:10;;;;;;;5.37;1.60;;;12.70;99.90;;;;;;5092757;28;20204;-57
2023/04/13 07:50:40;;;;;;;5.47;1.40;;;12.70;99.90;;;;;;5093318;28;20319;-57
2023/04/13 07:53:07;;;;;;;5.67;1.50;;;12.70;99.90;;;;;;5093719;28;20235;-57
2023/04/13 07:55:35;;;;;;;6.17;1.23;;;12.90;99.90;;;;;;5093708;28;20577;-58
2023/04/13 07:58:02;;;;;;;3.00;1.20;;;13.40;99.90;;;;;;5094567;28;20663;-57
2023/04/13 08:00:29;;;;;;;4.07;1.13;;;13.80;99.90;;;;;;5094573;28;20273;-60
2023/04/13 08:02:57;;;;;;;3.47;1.50;;;14.10;99.90;;;;;;5096483;28;20206;-58
2023/04/13 08:05:24;;;;;;;6.13;1.50;;;14.40;99.80;;;;;;5099961;28;20253;-57
2023/04/13 08:07:51;;;;;;;4.73;1.30;;;14.80;99.30;;;;;;5099141;28;20196;-57
2023/04/13 08:10:18;;;;;;;2.83;1.17;;;15.00;98.80;;;;;;5098601;28;20267;-58
2023/04/13 08:12:45;;;;;;;4.70;1.53;;;15.20;98.20;;;;;;5097791;28;20272;-57
2023/04/13 08:15:13;;;;;;;5.00;2.43;;;15.20;98.20;;;;;;5097463;28;20265;-57
2023/04/13 08:17:40;;;;;;;3.63;1.30;;;15.30;98.20;;;;;;5097556;28;20204;-57
2023/04/13 08:20:09;;;;;;;4.53;1.47;;;15.40;97.90;;;;;;5096843;28;20239;-58
2023/04/13 08:22:36;;;;;;;4.83;1.40;;;15.20;97.60;;;;;;5096551;28;20239;-58
2023/04/13 08:25:05;;;;;;;8.53;1.60;;;15.10;97.40;;;;;;5096481;28;20690;-55
2023/04/13 08:27:32;;;;;;;6.57;1.43;;;15.10;97.60;;;;;;5096591;28;20659;-56
2023/04/13 08:30:00;;;;;;;4.20;1.67;;;15.00;97.60;;;;;;5096222;28;20712;-58
2023/04/13 08:32:28;;;;;;;4.13;1.43;;;14.90;97.80;;;;;;5096851;28;20204;-56
2023/04/13 08:34:54;;;;;;;3.77;1.73;;;14.60;97.70;;;;;;5096692;28;20250;-57
2023/04/13 08:37:23;;;;;;;7.50;2.23;;;14.50;98.20;;;;;;5096309;28;20238;-58
2023/04/13 08:39:55;;;;;;;3.87;2.13;;;14.20;98.50;;;;;;5095749;28;20656;-58
2023/04/13 08:42:23;;;;;;;6.23;3.10;;;14.10;98.80;;;;;;5095455;28;20208;-61
2023/04/13 08:44:51;;;;;;;4.93;2.33;;;14.00;98.90;;;;;;5095692;28;20293;-60
2023/04/13 08:47:18;;;;;;;10.63;4.73;;;13.90;99.10;;;;;;5096792;28;20208;-62
2023/04/13 08:49:48;;;;;;;6.83;3.50;;;13.80;99.40;;;;;;5095924;28;20669;-57
2023/04/13 08:52:15;;;;;;;6.97;3.50;;;13.80;99.50;;;;;;5094605;28;20200;-58
2023/04/13 08:54:44;;;;;;;8.83;2.47;;;13.80;99.90;;;;;;5093990;28;20228;-58
2023/04/13 08:57:12;;;;;;;6.90;2.00;;;13.80;99.40;;;;;;5094466;28;20205;-57
2023/04/13 08:59:43;;;;;;;4.93;1.33;;;13.70;99.00;;;;;;5094608;28;20224;-57
2023/04/13 09:02:10;;;;;;;4.63;1.83;;;13.50;99.40;;;;;;5094206;28;20220;-56
2023/04/13 09:04:38;;;;;;;3.93;1.50;;;13.50;99.70;;;;;;5094241;28;20638;-56
2023/04/13 09:07:07;;;;;;;4.47;1.63;;;13.40;99.30;;;;;;5094660;28;20269;-56
2023/04/13 09:09:37;;;;;;;4.60;1.70;;;13.20;99.30;;;;;;5093790;28;20227;-56
2023/04/13 09:12:05;;;;;;;5.63;1.43;;;13.10;99.60;;;;;;5093938;28;20216;-55
2023/04/13 09:14:32;;;;;;;9.70;1.63;;;13.10;99.60;;;;;;5092975;28;20329;-56
2023/04/13 09:16:59;;;;;;;4.70;1.30;;;13.20;99.50;;;;;;5094760;28;20208;-57
2023/04/13 09:19:30;;;;;;;6.57;1.70;;;13.20;99.90;;;;;;5094231;28;20224;-56
2023/04/13 09:21:57;;;;;;;3.17;1.47;;;13.20;99.90;;;;;;5093802;28;20287;-57
2023/04/13 09:24:24;;;;;;;4.87;2.10;;;13.20;99.90;;;;;;5093933;28;20223;-56
2023/04/13 09:26:51;;;;;;;6.03;1.80;;;13.30;99.90;;;;;;5093850;28;20204;-56
2023/04/13 09:29:21;;;;;;;7.37;2.27;;;13.50;99.80;;;;;;5093499;28;20756;-55
2023/04/13 09:31:48;;;;;;;3.87;1.50;;;13.60;99.70;;;;;;5093999;28;20262;-56
2023/04/13 09:34:26;;;;;;;4.97;1.30;;;13.80;99.80;;;;;;5093344;28;20495;-56
2023/04/13 09:36:53;;;;;;;5.20;1.40;;;14.00;99.90;;;;;;5093829;28;20203;-56
2023/04/13 09:39:25;;;;;;;10.57;2.13;;;14.60;99.60;;;;;;5093786;28;20232;-55
2023/04/13 09:41:53;;;;;;;4.53;1.03;;;15.00;98.80;;;;;;5093610;28;20687;-57
2023/04/13 09:44:23;;;;;;;4.85;1.55;;;15.40;98.40;;;;;;5092973;28;20196;-57
2023/04/13 09:46:58;;;;;;;3.97;1.33;;;15.40;97.90;;;;;;5093674;28;20232;-57
2023/04/13 09:49:25;;;;;;;4.53;1.57;;;15.40;97.80;;;;;;5093551;28;20199;-57
2023/04/13 09:51:54;;;;;;;4.67;1.63;;;15.50;98.00;;;;;;5093350;28;20215;-57
2023/04/13 09:54:21;;;;;;;3.85;1.27;;;15.50;97.50;;;;;;5093477;28;20252;-56
2023/04/13 09:56:51;;;;;;;3.53;1.43;;;15.40;96.80;;;;;;5092976;28;20578;-56
2023/04/13 09:59:18;;;;;;;4.43;1.20;;;15.40;96.80;;;;;;5093232;28;20287;-56
2023/04/13 10:01:48;;;;;;;6.13;2.80;;;15.30;96.70;;;;;;5093446;28;20231;-56
2023/04/13 10:04:15;;;;;;;3.23;1.30;;;15.10;96.50;;;;;;5092801;28;20215;-56
2023/04/13 10:06:43;;;;;;;7.67;2.00;;;14.90;96.80;;;;;;5093252;28;20208;-57
2023/04/13 10:09:10;;;;;;;4.50;1.50;;;14.90;96.30;;;;;;5092998;28;20558;-57
2023/04/13 10:11:39;;;;;;;4.53;1.30;;;14.80;96.10;;;;;;5095744;28;20243;-61
2023/04/13 10:14:11;;;;;;;5.00;1.83;;;14.80;95.80;;;;;;5095652;28;20219;-61
2023/04/13 10:17:20;;;;;;;6.70;2.60;;;14.70;95.90;;;;;;5094993;28;20211;-62
2023/04/13 10:19:51;;;;;;;6.40;2.40;;;14.70;97.00;;;;;;5092108;28;20224;-61
2023/04/13 10:22:19;;;;;;;3.97;1.33;;;14.70;97.90;;;;;;5094111;28;20208;-59
2023/04/13 10:24:46;;;;;;;5.07;1.43;;;14.70;99.00;;;;;;5094922;28;20226;-62
2023/04/13 10:27:16;;;;;;;7.47;1.73;;;14.70;99.50;;;;;;5094963;28;20205;-59
2023/04/13 10:29:43;;;;;;;5.93;1.60;;;14.70;99.90;;;;;;5093447;28;20318;-58
2023/04/13 10:32:20;;;;;;;3.83;1.60;;;14.70;99.90;;;;;;5093696;28;20555;-60
2023/04/13 10:34:47;;;;;;;3.30;1.40;;;14.60;99.90;;;;;;5092877;28;20639;-58
2023/04/13 10:37:19;;;;;;;5.07;1.70;;;14.50;99.90;;;;;;5092819;28;20208;-59
2023/04/13 10:39:47;;;;;;;10.50;2.63;;;14.40;99.90;;;;;;5092824;28;20588;-59
2023/04/13 10:42:14;;;;;;;6.27;1.87;;;14.40;99.90;;;;;;5092576;28;20573;-57
2023/04/13 10:44:45;;;;;;;8.30;1.70;;;14.50;99.90;;;;;;5092091;28;20231;-57
2023/04/13 10:47:15;;;;;;;4.97;1.70;;;14.70;99.90;;;;;;5091922;28;20577;-57
2023/04/13 10:49:42;;;;;;;6.33;1.70;;;15.10;99.90;;;;;;5092451;28;20601;-60
2023/04/13 10:52:10;;;;;;;4.17;1.50;;;15.00;99.90;;;;;;5092420;28;20204;-59
2023/04/13 10:54:38;;;;;;;4.67;1.50;;;15.00;99.90;;;;;;5092095;28;20306;-60
2023/04/13 10:57:07;;;;;;;9.27;1.70;;;15.00;99.90;;;;;;5092753;28;20205;-57
2023/04/13 10:59:40;;;;;;;4.63;1.43;;;15.10;99.90;;;;;;5091352;28;20216;-57
2023/04/13 11:02:10;;;;;;;5.47;2.23;;;15.20;99.60;;;;;;5092186;28;20208;-60
2023/04/13 11:04:40;;;;;;;6.77;2.30;;;15.30;99.70;;;;;;5092473;28;20200;-59
2023/04/13 11:07:08;;;;;;;7.33;3.17;;;15.20;98.70;;;;;;5092782;28;20236;-59
2023/04/13 11:09:35;;;;;;;6.93;1.63;;;15.20;99.30;;;;;;5092650;28;20260;-60
2023/04/13 11:12:02;;;;;;;3.27;1.17;;;15.00;99.10;;;;;;5093459;28;20287;-58
2023/04/13 11:14:28;;;;;;;5.37;1.40;;;15.00;98.80;;;;;;5092874;28;20223;-60
2023/04/13 11:16:56;;;;;;;1.93;1.10;;;14.80;99.10;;;;;;5092850;28;20519;-59
2023/04/13 11:19:23;;;;;;;4.97;1.70;;;14.70;99.70;;;;;;5091985;28;20222;-57
2023/04/13 11:21:56;;;;;;;3.00;1.30;;;14.60;99.50;;;;;;5091506;28;20196;-60
2023/04/13 11:24:25;;;;;;;6.13;1.73;;;14.60;99.90;;;;;;5091684;28;20201;-59
2023/04/13 11:26:53;;;;;;;6.10;1.50;;;14.50;99.90;;;;;;5091950;28;20295;-57
2023/04/13 11:29:21;;;;;;;4.00;1.93;;;14.40;99.90;;;;;;5092669;28;20249;-59
2023/04/13 11:31:48;;;;;;;3.63;1.50;;;14.40;99.90;;;;;;5092660;28;20212;-60
2023/04/13 11:34:25;;;;;;;4.23;1.77;;;14.50;99.90;;;;;;5092204;28;20555;-59
2023/04/13 11:37:04;;;;;;;4.93;2.10;;;14.70;99.90;;;;;;5092245;28;20553;-59
2023/04/13 11:39:31;;;;;;;6.40;1.87;;;14.80;99.10;;;;;;5091795;28;20224;-60
2023/04/13 11:42:05;;;;;;;5.97;2.30;;;14.80;99.90;;;;;;5091583;28;20696;-58
2023/04/13 11:44:34;;;;;;;5.63;2.03;;;14.70;99.90;;;;;;5091906;28;20625;-59
2023/04/13 11:47:02;;;;;;;4.80;1.87;;;14.70;99.90;;;;;;5091145;28;20687;-57
2023/04/13 11:49:29;;;;;;;4.40;1.63;;;14.70;99.90;;;;;;5091417;28;20630;-58
2023/04/13 11:51:58;;;;;;;5.80;1.53;;;14.80;99.90;;;;;;5091889;28;20215;-58
2023/04/13 11:54:26;;;;;;;4.90;1.20;;;14.70;99.90;;;;;;5091535;28;20228;-58
2023/04/13 11:56:54;;;;;;;5.23;1.30;;;14.60;99.90;;;;;;5092180;28;20227;-59
2023/04/13 11:59:23;;;;;;;4.63;1.43;;;14.50;99.90;;;;;;5091633;28;20236;-57
2023/04/13 12:01:50;;;;;;;5.97;1.90;;;14.50;99.90;;;;;;5091201;28;20587;-57
2023/04/13 12:04:17;;;;;;;4.77;2.00;;;14.80;99.90;;;;;;5092475;28;20724;-59
2023/04/13 12:06:46;;;;;;;3.55;1.65;;;15.30;99.90;;;;;;5093649;28;20234;-61
2023/04/13 12:09:14;;;;;;;4.60;1.37;;;15.60;99.90;;;;;;5093957;28;20604;-61
2023/04/13 12:11:43;;;;;;;6.85;1.83;;;16.00;99.90;;;;;;5093504;28;20208;-61
2023/04/13 12:14:21;;;;;;;4.35;1.63;;;16.40;99.90;;;;;;5092467;28;20248;-62
2023/04/13 12:16:49;;;;;;;5.72;1.50;;;16.60;99.90;;;;;;5092881;28;20249;-60
2023/04/13 12:19:21;;;;;;;7.40;4.68;;;16.90;99.90;;;;;;5091959;28;20215;-59
2023/04/13 12:21:54;;;;;;;16.27;9.27;;;16.90;99.90;;;;;;5092513;28;20200;-61
2023/04/13 12:24:31;;;;;;;6.82;2.60;;;16.90;99.90;;;;;;5093474;28;20200;-62
2023/04/13 12:27:01;;;;;;;6.55;1.85;;;16.80;99.90;;;;;;5093070;28;20208;-60
2023/04/13 12:29:28;;;;;;;6.28;1.65;;;16.50;99.90;;;;;;5092473;28;20228;-61
2023/04/13 12:32:00;;;;;;;6.15;1.92;;;16.30;99.90;;;;;;5092839;28;20213;-64
2023/04/13 12:34:26;;;;;;;6.05;1.63;;;16.20;99.90;;;;;;5093043;28;20226;-63
2023/04/13 12:36:53;;;;;;;7.35;3.70;;;16.20;99.90;;;;;;5092311;28;20213;-62
2023/04/13 12:39:21;;;;;;;7.25;1.98;;;16.20;99.90;;;;;;5092570;28;20215;-63
2023/04/13 12:41:48;;;;;;;17.00;13.30;;;16.10;99.90;;;;;;5092064;28;20207;-58
2023/04/13 12:44:15;;;;;;;5.93;3.13;;;16.00;99.90;;;;;;5092811;28;20391;-61
2023/04/13 12:46:42;;;;;;;6.65;1.75;;;15.90;99.90;;;;;;5092150;28;20210;-60
2023/04/13 12:49:09;;;;;;;3.00;1.40;;;16.00;99.90;;;;;;5092359;28;20208;-59
2023/04/13 12:51:36;;;;;;;4.57;1.65;;;16.10;99.90;;;;;;5095803;28;20330;-62
2023/04/13 12:54:07;;;;;;;7.30;3.03;;;16.20;99.90;;;;;;5096044;28;20211;-58
2023/04/13 12:56:35;;;;;;;2.53;1.27;;;16.30;99.90;;;;;;5096205;28;20261;-61